sensor_id;sensor_type;location;lat;lon;timestamp;temperature;humidity
33580;DHT22;19909;43.644;-79.438;2023-03-20T00:01:50;16.00;31.70
33580;DHT22;19909;43.644;-79.438;2023-03-20T00:04:16;15.90;31.20
33580;DHT22;19909;43.644;-79.438;2023-03-20T00:06:42;15.90;31.20
33580;DHT22;19909;43.644;-79.438;2023-03-20T00:09:08;15.90;31.20
33580;DHT22;19909;43.644;-79.438;2023-03-20T00:11:43;16.00;32.20
33580;DHT22;19909;43.644;-79.438;2023-03-20T00:14:14;16.00;32.60
33580;DHT22;19909;43.644;-79.438;2023-03-20T00:16:43;15.90;32.20
33580;DHT22;19909;43.644;-79.438;2023-03-20T00:19:27;15.90;31.50
33580;DHT22;19909;43.644;-79.438;2023-03-20T00:21:57;15.90;31.70
33580;DHT22;19909;43.644;-79.438;2023-03-20T00:24:23;15.80;31.90
33580;DHT22;19909;43.644;-79.438;2023-03-20T00:26:51;15.90;32.50
33580;DHT22;19909;43.644;-79.438;2023-03-20T00:29:27;15.90;32.70
33580;DHT22;19909;43.644;-79.438;2023-03-20T00:31:56;15.80;32.80
33580;DHT22;19909;43.644;-79.438;2023-03-20T00:34:25;15.80;32.10
33580;DHT22;19909;43.644;-79.438;2023-03-20T00:36:52;15.80;32.00
33580;DHT22;19909;43.644;-79.438;2023-03-20T00:39:19;15.80;32.20
33580;DHT22;19909;43.644;-79.438;2023-03-20T00:41:53;15.80;32.60
33580;DHT22;19909;43.644;-79.438;2023-03-20T00:44:21;15.80;32.00
33580;DHT22;19909;43.644;-79.438;2023-03-20T00:46:52;15.80;31.70
33580;DHT22;19909;43.644;-79.438;2023-03-20T00:49:30;15.90;31.50
33580;DHT22;19909;43.644;-79.438;2023-03-20T00:51:57;15.90;31.90
33580;DHT22;19909;43.644;-79.438;2023-03-20T00:54:24;16.00;32.70
33580;DHT22;19909;43.644;-79.438;2023-03-20T00:56:58;16.00;32.70
33580;DHT22;19909;43.644;-79.438;2023-03-20T00:59:32;16.00;32.60
33580;DHT22;19909;43.644;-79.438;2023-03-20T01:02:00;16.00;32.60
33580;DHT22;19909;43.644;-79.438;2023-03-20T01:04:40;16.00;31.80
33580;DHT22;19909;43.644;-79.438;2023-03-20T01:07:11;16.00;31.60
33580;DHT22;19909;43.644;-79.438;2023-03-20T01:09:38;16.00;31.50
33580;DHT22;19909;43.644;-79.438;2023-03-20T01:12:05;16.00;32.20
33580;DHT22;19909;43.644;-79.438;2023-03-20T01:14:33;16.00;32.80
33580;DHT22;19909;43.644;-79.438;2023-03-20T01:16:59;16.00;32.90
33580;DHT22;19909;43.644;-79.438;2023-03-20T01:19:25;16.00;32.10
33580;DHT22;19909;43.644;-79.438;2023-03-20T01:21:51;15.90;31.80
33580;DHT22;19909;43.644;-79.438;2023-03-20T01:24:17;15.90;32.00
33580;DHT22;19909;43.644;-79.438;2023-03-20T01:26:44;16.00;32.70
33580;DHT22;19909;43.644;-79.438;2023-03-20T01:29:31;15.90;33.60
33580;DHT22;19909;43.644;-79.438;2023-03-20T01:31:57;15.90;33.10
33580;DHT22;19909;43.644;-79.438;2023-03-20T01:34:24;15.90;32.60
33580;DHT22;19909;43.644;-79.438;2023-03-20T01:36:52;15.90;32.50
33580;DHT22;19909;43.644;-79.438;2023-03-20T01:39:20;15.90;32.50
33580;DHT22;19909;43.644;-79.438;2023-03-20T01:41:50;15.90;33.00
33580;DHT22;19909;43.644;-79.438;2023-03-20T01:44:24;15.80;33.20
33580;DHT22;19909;43.644;-79.438;2023-03-20T01:46:52;15.90;33.20
33580;DHT22;19909;43.644;-79.438;2023-03-20T01:51:45;15.80;32.90
33580;DHT22;19909;43.644;-79.438;2023-03-20T01:54:34;15.80;32.90
33580;DHT22;19909;43.644;-79.438;2023-03-20T01:57:03;15.80;33.10
33580;DHT22;19909;43.644;-79.438;2023-03-20T01:59:41;15.80;33.20
33580;DHT22;19909;43.644;-79.438;2023-03-20T02:02:10;15.80;33.30
33580;DHT22;19909;43.644;-79.438;2023-03-20T02:04:42;15.80;33.00
33580;DHT22;19909;43.644;-79.438;2023-03-20T02:07:10;15.80;33.10
33580;DHT22;19909;43.644;-79.438;2023-03-20T02:09:38;15.80;33.10
33580;DHT22;19909;43.644;-79.438;2023-03-20T02:12:05;15.80;33.30
33580;DHT22;19909;43.644;-79.438;2023-03-20T02:14:31;15.80;33.10
33580;DHT22;19909;43.644;-79.438;2023-03-20T02:16:58;15.80;32.60
33580;DHT22;19909;43.644;-79.438;2023-03-20T02:34:15;15.90;32.70
33580;DHT22;19909;43.644;-79.438;2023-03-20T02:42:49;15.90;33.20
33580;DHT22;19909;43.644;-79.438;2023-03-20T02:45:30;15.90;33.40
33580;DHT22;19909;43.644;-79.438;2023-03-20T02:53:59;15.90;32.50
33580;DHT22;19909;43.644;-79.438;2023-03-20T02:57:20;15.90;33.30
33580;DHT22;19909;43.644;-79.438;2023-03-20T03:02:17;15.90;32.50
33580;DHT22;19909;43.644;-79.438;2023-03-20T03:04:59;15.90;32.30
33580;DHT22;19909;43.644;-79.438;2023-03-20T03:07:30;16.00;33.10
33580;DHT22;19909;43.644;-79.438;2023-03-20T03:10:11;16.00;33.30
33580;DHT22;19909;43.644;-79.438;2023-03-20T03:12:43;16.00;33.40
33580;DHT22;19909;43.644;-79.438;2023-03-20T03:15:37;16.00;33.30
33580;DHT22;19909;43.644;-79.438;2023-03-20T03:18:06;16.00;32.60
33580;DHT22;19909;43.644;-79.438;2023-03-20T03:20:37;16.00;32.60
33580;DHT22;19909;43.644;-79.438;2023-03-20T03:23:05;16.00;32.30
33580;DHT22;19909;43.644;-79.438;2023-03-20T03:25:35;16.00;32.70
33580;DHT22;19909;43.644;-79.438;2023-03-20T03:30:37;16.00;33.40
33580;DHT22;19909;43.644;-79.438;2023-03-20T03:33:24;16.00;32.90
33580;DHT22;19909;43.644;-79.438;2023-03-20T03:35:57;16.00;32.50
33580;DHT22;19909;43.644;-79.438;2023-03-20T03:39:00;16.00;32.70
33580;DHT22;19909;43.644;-79.438;2023-03-20T03:49:07;15.90;33.20
33580;DHT22;19909;43.644;-79.438;2023-03-20T03:51:38;15.90;33.10
33580;DHT22;19909;43.644;-79.438;2023-03-20T03:54:18;15.90;33.30
33580;DHT22;19909;43.644;-79.438;2023-03-20T03:56:46;15.90;33.40
33580;DHT22;19909;43.644;-79.438;2023-03-20T03:59:34;15.80;33.40
33580;DHT22;19909;43.644;-79.438;2023-03-20T04:02:01;15.90;33.60
33580;DHT22;19909;43.644;-79.438;2023-03-20T04:04:31;15.80;33.40
33580;DHT22;19909;43.644;-79.438;2023-03-20T04:06:58;15.80;33.40
33580;DHT22;19909;43.644;-79.438;2023-03-20T04:09:25;15.90;33.50
33580;DHT22;19909;43.644;-79.438;2023-03-20T04:11:52;15.80;33.40
33580;DHT22;19909;43.644;-79.438;2023-03-20T04:14:19;15.80;33.50
33580;DHT22;19909;43.644;-79.438;2023-03-20T04:16:46;15.80;33.50
33580;DHT22;19909;43.644;-79.438;2023-03-20T04:19:12;15.80;33.40
33580;DHT22;19909;43.644;-79.438;2023-03-20T04:21:38;15.80;33.50
33580;DHT22;19909;43.644;-79.438;2023-03-20T04:24:05;15.80;33.50
33580;DHT22;19909;43.644;-79.438;2023-03-20T04:26:32;15.80;33.50
33580;DHT22;19909;43.644;-79.438;2023-03-20T04:28:58;15.80;33.60
33580;DHT22;19909;43.644;-79.438;2023-03-20T04:31:24;15.80;33.50
33580;DHT22;19909;43.644;-79.438;2023-03-20T04:33:50;15.80;33.00
33580;DHT22;19909;43.644;-79.438;2023-03-20T04:36:16;15.80;32.70
33580;DHT22;19909;43.644;-79.438;2023-03-20T04:38:42;15.90;32.60
33580;DHT22;19909;43.644;-79.438;2023-03-20T04:41:09;16.00;32.90
33580;DHT22;19909;43.644;-79.438;2023-03-20T04:43:35;16.00;33.40
33580;DHT22;19909;43.644;-79.438;2023-03-20T04:46:01;16.00;33.50
33580;DHT22;19909;43.644;-79.438;2023-03-20T04:48:27;16.00;33.00
33580;DHT22;19909;43.644;-79.438;2023-03-20T04:50:53;16.10;33.60
33580;DHT22;19909;43.644;-79.438;2023-03-20T04:53:19;16.00;32.60
33580;DHT22;19909;43.644;-79.438;2023-03-20T04:55:46;16.00;33.00
33580;DHT22;19909;43.644;-79.438;2023-03-20T04:58:12;16.00;33.40
33580;DHT22;19909;43.644;-79.438;2023-03-20T05:00:39;16.00;33.50
33580;DHT22;19909;43.644;-79.438;2023-03-20T05:03:05;16.00;33.00
33580;DHT22;19909;43.644;-79.438;2023-03-20T05:05:31;16.00;32.70
33580;DHT22;19909;43.644;-79.438;2023-03-20T05:07:58;16.00;32.60
33580;DHT22;19909;43.644;-79.438;2023-03-20T05:10:25;16.00;33.10
33580;DHT22;19909;43.644;-79.438;2023-03-20T05:12:51;15.90;33.40
33580;DHT22;19909;43.644;-79.438;2023-03-20T05:15:17;15.90;33.70
33580;DHT22;19909;43.644;-79.438;2023-03-20T05:17:43;16.00;33.50
33580;DHT22;19909;43.644;-79.438;2023-03-20T05:20:09;15.90;33.10
33580;DHT22;19909;43.644;-79.438;2023-03-20T05:22:36;15.90;33.20
33580;DHT22;19909;43.644;-79.438;2023-03-20T05:25:02;15.90;33.40
33580;DHT22;19909;43.644;-79.438;2023-03-20T05:27:28;15.90;33.50
33580;DHT22;19909;43.644;-79.438;2023-03-20T05:29:54;15.90;33.70
33580;DHT22;19909;43.644;-79.438;2023-03-20T05:32:20;15.90;33.70
33580;DHT22;19909;43.644;-79.438;2023-03-20T05:34:47;15.90;33.40
33580;DHT22;19909;43.644;-79.438;2023-03-20T05:37:13;15.80;33.40
33580;DHT22;19909;43.644;-79.438;2023-03-20T05:39:39;15.90;33.70
33580;DHT22;19909;43.644;-79.438;2023-03-20T05:42:05;15.90;33.70
33580;DHT22;19909;43.644;-79.438;2023-03-20T05:44:32;15.90;34.40
33580;DHT22;19909;43.644;-79.438;2023-03-20T05:46:58;15.80;33.70
33580;DHT22;19909;43.644;-79.438;2023-03-20T05:49:24;15.80;33.60
33580;DHT22;19909;43.644;-79.438;2023-03-20T05:51:50;15.80;33.40
33580;DHT22;19909;43.644;-79.438;2023-03-20T05:54:17;15.80;33.50
33580;DHT22;19909;43.644;-79.438;2023-03-20T05:56:43;15.80;33.60
33580;DHT22;19909;43.644;-79.438;2023-03-20T05:59:10;15.80;33.70
33580;DHT22;19909;43.644;-79.438;2023-03-20T06:01:37;15.80;33.70
33580;DHT22;19909;43.644;-79.438;2023-03-20T06:04:03;15.80;33.60
33580;DHT22;19909;43.644;-79.438;2023-03-20T06:06:29;15.80;33.60
33580;DHT22;19909;43.644;-79.438;2023-03-20T06:08:55;15.80;33.70
33580;DHT22;19909;43.644;-79.438;2023-03-20T06:11:22;15.80;33.60
33580;DHT22;19909;43.644;-79.438;2023-03-20T06:13:48;15.80;33.60
33580;DHT22;19909;43.644;-79.438;2023-03-20T06:16:15;15.80;33.10
33580;DHT22;19909;43.644;-79.438;2023-03-20T06:18:41;15.80;32.80
33580;DHT22;19909;43.644;-79.438;2023-03-20T06:21:07;15.90;32.70
33580;DHT22;19909;43.644;-79.438;2023-03-20T06:23:36;15.90;33.30
33580;DHT22;19909;43.644;-79.438;2023-03-20T06:26:02;15.90;33.60
33580;DHT22;19909;43.644;-79.438;2023-03-20T06:28:28;15.90;33.60
33580;DHT22;19909;43.644;-79.438;2023-03-20T06:30:54;16.00;33.90
33580;DHT22;19909;43.644;-79.438;2023-03-20T06:33:21;15.90;33.00
33580;DHT22;19909;43.644;-79.438;2023-03-20T06:35:48;15.90;32.90
33580;DHT22;19909;43.644;-79.438;2023-03-20T06:38:15;15.90;32.50
33580;DHT22;19909;43.644;-79.438;2023-03-20T06:40:41;15.90;33.10
33580;DHT22;19909;43.644;-79.438;2023-03-20T06:43:08;16.00;33.60
33580;DHT22;19909;43.644;-79.438;2023-03-20T06:45:37;15.90;33.70
33580;DHT22;19909;43.644;-79.438;2023-03-20T06:48:10;15.90;33.30
33580;DHT22;19909;43.644;-79.438;2023-03-20T06:50:36;15.90;32.80
33580;DHT22;19909;43.644;-79.438;2023-03-20T06:53:03;15.90;33.10
33580;DHT22;19909;43.644;-79.438;2023-03-20T06:55:29;15.90;32.80
33580;DHT22;19909;43.644;-79.438;2023-03-20T06:57:56;15.90;32.60
33580;DHT22;19909;43.644;-79.438;2023-03-20T07:00:22;15.90;32.50
33580;DHT22;19909;43.644;-79.438;2023-03-20T07:02:49;16.00;32.60
33580;DHT22;19909;43.644;-79.438;2023-03-20T07:05:15;16.00;33.30
33580;DHT22;19909;43.644;-79.438;2023-03-20T07:07:42;16.10;33.60
33580;DHT22;19909;43.644;-79.438;2023-03-20T07:10:08;16.10;33.30
33580;DHT22;19909;43.644;-79.438;2023-03-20T07:12:35;16.10;33.40
33580;DHT22;19909;43.644;-79.438;2023-03-20T07:15:01;16.00;33.60
33580;DHT22;19909;43.644;-79.438;2023-03-20T07:17:27;16.00;33.00
33580;DHT22;19909;43.644;-79.438;2023-03-20T07:19:53;16.00;32.70
33580;DHT22;19909;43.644;-79.438;2023-03-20T07:22:25;16.00;32.40
33580;DHT22;19909;43.644;-79.438;2023-03-20T07:24:51;16.00;32.40
33580;DHT22;19909;43.644;-79.438;2023-03-20T07:27:18;16.00;32.70
33580;DHT22;19909;43.644;-79.438;2023-03-20T07:29:44;16.00;33.00
33580;DHT22;19909;43.644;-79.438;2023-03-20T07:32:11;16.00;32.90
33580;DHT22;19909;43.644;-79.438;2023-03-20T07:34:37;16.00;32.50
33580;DHT22;19909;43.644;-79.438;2023-03-20T07:37:03;16.00;32.30
33580;DHT22;19909;43.644;-79.438;2023-03-20T07:39:30;16.00;32.50
33580;DHT22;19909;43.644;-79.438;2023-03-20T07:41:56;16.00;33.00
33580;DHT22;19909;43.644;-79.438;2023-03-20T07:44:23;16.00;33.40
33580;DHT22;19909;43.644;-79.438;2023-03-20T07:46:49;15.90;33.30
33580;DHT22;19909;43.644;-79.438;2023-03-20T07:49:16;15.90;32.60
33580;DHT22;19909;43.644;-79.438;2023-03-20T07:51:44;15.90;32.50
33580;DHT22;19909;43.644;-79.438;2023-03-20T07:54:10;15.90;32.50
33580;DHT22;19909;43.644;-79.438;2023-03-20T07:56:37;15.90;33.20
33580;DHT22;19909;43.644;-79.438;2023-03-20T07:59:03;15.90;33.40
33580;DHT22;19909;43.644;-79.438;2023-03-20T08:01:29;15.90;33.50
33580;DHT22;19909;43.644;-79.438;2023-03-20T08:03:55;15.90;32.80
33580;DHT22;19909;43.644;-79.438;2023-03-20T08:06:21;15.90;32.80
33580;DHT22;19909;43.644;-79.438;2023-03-20T08:08:47;15.80;32.60
33580;DHT22;19909;43.644;-79.438;2023-03-20T08:11:17;15.90;33.30
33580;DHT22;19909;43.644;-79.438;2023-03-20T08:13:43;15.90;32.70
33580;DHT22;19909;43.644;-79.438;2023-03-20T08:16:09;15.90;32.50
33580;DHT22;19909;43.644;-79.438;2023-03-20T08:18:36;15.90;32.30
33580;DHT22;19909;43.644;-79.438;2023-03-20T08:21:02;16.00;32.30
33580;DHT22;19909;43.644;-79.438;2023-03-20T08:23:28;16.10;33.20
33580;DHT22;19909;43.644;-79.438;2023-03-20T08:25:55;16.10;33.40
33580;DHT22;19909;43.644;-79.438;2023-03-20T08:28:22;16.10;33.30
33580;DHT22;19909;43.644;-79.438;2023-03-20T08:30:48;16.10;33.40
33580;DHT22;19909;43.644;-79.438;2023-03-20T08:33:15;16.10;32.70
33580;DHT22;19909;43.644;-79.438;2023-03-20T08:35:42;16.10;32.60
33580;DHT22;19909;43.644;-79.438;2023-03-20T08:38:12;16.10;32.30
33580;DHT22;19909;43.644;-79.438;2023-03-20T08:40:41;16.10;32.60
33580;DHT22;19909;43.644;-79.438;2023-03-20T08:43:08;16.10;33.20
33580;DHT22;19909;43.644;-79.438;2023-03-20T08:45:34;16.10;33.40
33580;DHT22;19909;43.644;-79.438;2023-03-20T08:48:00;16.00;32.90
33580;DHT22;19909;43.644;-79.438;2023-03-20T08:50:27;16.00;32.40
33580;DHT22;19909;43.644;-79.438;2023-03-20T08:52:53;16.00;32.30
33580;DHT22;19909;43.644;-79.438;2023-03-20T08:55:19;16.00;32.80
33580;DHT22;19909;43.644;-79.438;2023-03-20T08:57:46;16.00;32.50
33580;DHT22;19909;43.644;-79.438;2023-03-20T09:00:14;16.00;32.30
33580;DHT22;19909;43.644;-79.438;2023-03-20T09:02:41;16.10;32.30
33580;DHT22;19909;43.644;-79.438;2023-03-20T09:05:08;16.10;32.20
33580;DHT22;19909;43.644;-79.438;2023-03-20T09:07:35;16.20;33.00
33580;DHT22;19909;43.644;-79.438;2023-03-20T09:10:02;16.20;33.20
33580;DHT22;19909;43.644;-79.438;2023-03-20T09:12:29;16.20;33.30
33580;DHT22;19909;43.644;-79.438;2023-03-20T09:14:57;16.20;33.40
33580;DHT22;19909;43.644;-79.438;2023-03-20T09:17:24;16.20;33.50
33580;DHT22;19909;43.644;-79.438;2023-03-20T09:19:50;16.20;32.70
33580;DHT22;19909;43.644;-79.438;2023-03-20T09:22:16;16.10;32.40
33580;DHT22;19909;43.644;-79.438;2023-03-20T09:24:45;16.20;32.30
33580;DHT22;19909;43.644;-79.438;2023-03-20T09:27:12;16.10;32.60
33580;DHT22;19909;43.644;-79.438;2023-03-20T09:29:39;16.10;33.10
33580;DHT22;19909;43.644;-79.438;2023-03-20T09:32:06;16.10;32.90
33580;DHT22;19909;43.644;-79.438;2023-03-20T09:34:32;16.10;32.40
33580;DHT22;19909;43.644;-79.438;2023-03-20T09:36:59;16.10;32.20
33580;DHT22;19909;43.644;-79.438;2023-03-20T09:39:27;16.10;32.40
33580;DHT22;19909;43.644;-79.438;2023-03-20T09:41:58;16.10;33.10
33580;DHT22;19909;43.644;-79.438;2023-03-20T09:44:42;16.10;33.40
33580;DHT22;19909;43.644;-79.438;2023-03-20T09:53:27;16.00;32.40
33580;DHT22;19909;43.644;-79.438;2023-03-20T09:55:55;16.00;33.10
33580;DHT22;19909;43.644;-79.438;2023-03-20T09:58:42;16.00;32.70
33580;DHT22;19909;43.644;-79.438;2023-03-20T10:01:13;16.00;32.40
33580;DHT22;19909;43.644;-79.438;2023-03-20T10:03:52;16.10;32.30
33580;DHT22;19909;43.644;-79.438;2023-03-20T10:06:18;16.10;32.30
33580;DHT22;19909;43.644;-79.438;2023-03-20T10:08:45;16.20;33.00
33580;DHT22;19909;43.644;-79.438;2023-03-20T10:14:24;16.20;33.20
33580;DHT22;19909;43.644;-79.438;2023-03-20T10:22:44;16.20;32.40
33580;DHT22;19909;43.644;-79.438;2023-03-20T10:25:30;16.20;32.40
33580;DHT22;19909;43.644;-79.438;2023-03-20T10:28:02;16.20;33.00
33580;DHT22;19909;43.644;-79.438;2023-03-20T10:36:45;16.10;32.40
33580;DHT22;19909;43.644;-79.438;2023-03-20T10:41:55;16.10;33.10
33580;DHT22;19909;43.644;-79.438;2023-03-20T10:44:32;16.10;32.50
33580;DHT22;19909;43.644;-79.438;2023-03-20T10:47:00;16.10;32.30
33580;DHT22;19909;43.644;-79.438;2023-03-20T10:49:48;16.10;32.20
33580;DHT22;19909;43.644;-79.438;2023-03-20T10:52:19;16.20;32.70
33580;DHT22;19909;43.644;-79.438;2023-03-20T10:55:18;16.20;33.10
33580;DHT22;19909;43.644;-79.438;2023-03-20T10:58:23;16.20;33.00
33580;DHT22;19909;43.644;-79.438;2023-03-20T11:00:42;16.20;33.20
33580;DHT22;19909;43.644;-79.438;2023-03-20T11:03:26;16.20;32.70
33580;DHT22;19909;43.644;-79.438;2023-03-20T11:06:19;16.20;32.50
33580;DHT22;19909;43.644;-79.438;2023-03-20T11:08:49;16.20;32.20
33580;DHT22;19909;43.644;-79.438;2023-03-20T11:11:27;16.20;32.70
33580;DHT22;19909;43.644;-79.438;2023-03-20T11:14:09;16.20;33.00
33580;DHT22;19909;43.644;-79.438;2023-03-20T11:16:41;16.20;33.20
33580;DHT22;19909;43.644;-79.438;2023-03-20T11:19:10;16.20;32.50
33580;DHT22;19909;43.644;-79.438;2023-03-20T11:21:48;16.20;32.30
33580;DHT22;19909;43.644;-79.438;2023-03-20T11:25:04;16.10;32.20
33580;DHT22;19909;43.644;-79.438;2023-03-20T11:27:17;16.20;33.00
33580;DHT22;19909;43.644;-79.438;2023-03-20T11:29:49;16.10;33.30
33580;DHT22;19909;43.644;-79.438;2023-03-20T11:32:34;16.10;33.00
33580;DHT22;19909;43.644;-79.438;2023-03-20T11:35:17;16.10;32.60
33580;DHT22;19909;43.644;-79.438;2023-03-20T11:37:49;16.10;32.50
33580;DHT22;19909;43.644;-79.438;2023-03-20T11:40:39;16.00;32.90
33580;DHT22;19909;43.644;-79.438;2023-03-20T11:43:11;16.00;33.00
33580;DHT22;19909;43.644;-79.438;2023-03-20T11:45:43;16.00;32.40
33580;DHT22;19909;43.644;-79.438;2023-03-20T11:49:00;16.10;32.30
33580;DHT22;19909;43.644;-79.438;2023-03-20T11:51:09;16.10;32.20
33580;DHT22;19909;43.644;-79.438;2023-03-20T11:53:41;16.20;32.80
33580;DHT22;19909;43.644;-79.438;2023-03-20T11:56:31;16.30;33.10
33580;DHT22;19909;43.644;-79.438;2023-03-20T12:01:44;16.30;33.30
33580;DHT22;19909;43.644;-79.438;2023-03-20T12:04:34;16.30;32.70
33580;DHT22;19909;43.644;-79.438;2023-03-20T12:07:36;16.20;32.50
33580;DHT22;19909;43.644;-79.438;2023-03-20T12:10:06;16.20;32.30
33580;DHT22;19909;43.644;-79.438;2023-03-20T12:20:13;16.20;32.40
33580;DHT22;19909;43.644;-79.438;2023-03-20T12:23:34;16.10;32.20
33580;DHT22;19909;43.644;-79.438;2023-03-20T12:28:42;16.10;33.20
33580;DHT22;19909;43.644;-79.438;2023-03-20T12:36:49;16.10;32.70
33580;DHT22;19909;43.644;-79.438;2023-03-20T12:39:23;16.10;32.70
33580;DHT22;19909;43.644;-79.438;2023-03-20T12:45:03;16.10;33.40
33580;DHT22;19909;43.644;-79.438;2023-03-20T12:50:38;16.00;32.80
33580;DHT22;19909;43.644;-79.438;2023-03-20T12:53:34;16.00;32.90
33580;DHT22;19909;43.644;-79.438;2023-03-20T12:58:46;16.00;33.50
33580;DHT22;19909;43.644;-79.438;2023-03-20T13:01:23;16.00;33.50
33580;DHT22;19909;43.644;-79.438;2023-03-20T13:04:05;16.00;32.70
33580;DHT22;19909;43.644;-79.438;2023-03-20T13:14:29;16.20;33.30
33580;DHT22;19909;43.644;-79.438;2023-03-20T13:30:51;16.20;33.50
33580;DHT22;19909;43.644;-79.438;2023-03-20T13:38:40;16.10;32.60
33580;DHT22;19909;43.644;-79.438;2023-03-20T13:41:09;16.10;33.10
33580;DHT22;19909;43.644;-79.438;2023-03-20T13:48:57;16.10;33.00
33580;DHT22;19909;43.644;-79.438;2023-03-20T13:51:29;16.10;32.70
33580;DHT22;19909;43.644;-79.438;2023-03-20T13:57:04;16.10;33.40
33580;DHT22;19909;43.644;-79.438;2023-03-20T14:05:24;16.00;33.10
33580;DHT22;19909;43.644;-79.438;2023-03-20T14:07:56;16.00;33.00
33580;DHT22;19909;43.644;-79.438;2023-03-20T14:12:52;16.00;33.50
33580;DHT22;19909;43.644;-79.438;2023-03-20T14:15:19;16.00;33.70
33580;DHT22;19909;43.644;-79.438;2023-03-20T14:17:47;16.00;33.50
33580;DHT22;19909;43.644;-79.438;2023-03-20T14:20:36;16.00;33.40
33580;DHT22;19909;43.644;-79.438;2023-03-20T14:23:04;16.00;33.50
33580;DHT22;19909;43.644;-79.438;2023-03-20T14:25:40;16.00;33.60
33580;DHT22;19909;43.644;-79.438;2023-03-20T14:28:24;15.90;33.80
33580;DHT22;19909;43.644;-79.438;2023-03-20T14:31:21;15.90;33.80
33580;DHT22;19909;43.644;-79.438;2023-03-20T14:33:57;15.90;33.50
33580;DHT22;19909;43.644;-79.438;2023-03-20T14:36:30;15.90;33.40
33580;DHT22;19909;43.644;-79.438;2023-03-20T14:39:10;15.90;33.60
33580;DHT22;19909;43.644;-79.438;2023-03-20T14:47:09;15.90;33.80
33580;DHT22;19909;43.644;-79.438;2023-03-20T14:50:08;15.90;33.60
33580;DHT22;19909;43.644;-79.438;2023-03-20T14:57:48;15.90;33.90
33580;DHT22;19909;43.644;-79.438;2023-03-20T15:00:28;15.90;34.00
33580;DHT22;19909;43.644;-79.438;2023-03-20T15:03:08;15.90;33.90
33580;DHT22;19909;43.644;-79.438;2023-03-20T15:05:37;15.80;33.80
33580;DHT22;19909;43.644;-79.438;2023-03-20T15:08:17;15.90;33.80
33580;DHT22;19909;43.644;-79.438;2023-03-20T15:10:55;15.90;33.90
33580;DHT22;19909;43.644;-79.438;2023-03-20T15:13:24;15.90;33.90
33580;DHT22;19909;43.644;-79.438;2023-03-20T15:16:09;15.80;33.90
33580;DHT22;19909;43.644;-79.438;2023-03-20T15:18:45;15.80;33.90
33580;DHT22;19909;43.644;-79.438;2023-03-20T15:21:17;15.80;33.90
33580;DHT22;19909;43.644;-79.438;2023-03-20T15:23:44;15.80;33.90
33580;DHT22;19909;43.644;-79.438;2023-03-20T15:26:15;15.80;33.90
33580;DHT22;19909;43.644;-79.438;2023-03-20T15:28:44;15.90;34.00
33580;DHT22;19909;43.644;-79.438;2023-03-20T15:31:29;15.80;34.10
33580;DHT22;19909;43.644;-79.438;2023-03-20T15:33:59;15.80;34.10
33580;DHT22;19909;43.644;-79.438;2023-03-20T15:36:28;15.80;34.10
33580;DHT22;19909;43.644;-79.438;2023-03-20T15:39:21;15.80;33.90
33580;DHT22;19909;43.644;-79.438;2023-03-20T15:41:55;15.80;34.10
33580;DHT22;19909;43.644;-79.438;2023-03-20T15:44:33;15.80;34.10
33580;DHT22;19909;43.644;-79.438;2023-03-20T15:49:32;15.80;34.20
33580;DHT22;19909;43.644;-79.438;2023-03-20T15:52:03;15.80;34.10
33580;DHT22;19909;43.644;-79.438;2023-03-20T15:54:30;15.80;34.20
33580;DHT22;19909;43.644;-79.438;2023-03-20T15:56:57;15.80;34.20
33580;DHT22;19909;43.644;-79.438;2023-03-20T15:59:29;15.80;34.20
33580;DHT22;19909;43.644;-79.438;2023-03-20T16:01:57;15.80;34.20
33580;DHT22;19909;43.644;-79.438;2023-03-20T16:04:24;15.80;34.20
33580;DHT22;19909;43.644;-79.438;2023-03-20T16:06:59;15.70;34.20
33580;DHT22;19909;43.644;-79.438;2023-03-20T16:09:27;15.80;34.30
33580;DHT22;19909;43.644;-79.438;2023-03-20T16:12:02;15.80;34.30
33580;DHT22;19909;43.644;-79.438;2023-03-20T16:14:31;15.70;34.30
33580;DHT22;19909;43.644;-79.438;2023-03-20T16:16:59;15.70;34.20
33580;DHT22;19909;43.644;-79.438;2023-03-20T16:19:27;15.80;34.30
33580;DHT22;19909;43.644;-79.438;2023-03-20T16:22:00;15.70;34.10
33580;DHT22;19909;43.644;-79.438;2023-03-20T16:24:29;15.70;34.20
33580;DHT22;19909;43.644;-79.438;2023-03-20T16:26:56;15.70;34.30
33580;DHT22;19909;43.644;-79.438;2023-03-20T16:29:24;15.70;34.30
33580;DHT22;19909;43.644;-79.438;2023-03-20T16:32:05;15.70;34.30
33580;DHT22;19909;43.644;-79.438;2023-03-20T16:34:34;15.70;34.30
33580;DHT22;19909;43.644;-79.438;2023-03-20T16:37:20;15.70;34.30
33580;DHT22;19909;43.644;-79.438;2023-03-20T16:39:47;15.70;34.30
33580;DHT22;19909;43.644;-79.438;2023-03-20T16:42:23;15.70;34.40
33580;DHT22;19909;43.644;-79.438;2023-03-20T16:44:57;15.70;34.50
33580;DHT22;19909;43.644;-79.438;2023-03-20T16:47:35;15.70;34.40
33580;DHT22;19909;43.644;-79.438;2023-03-20T16:52:39;15.70;34.30
33580;DHT22;19909;43.644;-79.438;2023-03-20T16:55:14;15.70;34.30
33580;DHT22;19909;43.644;-79.438;2023-03-20T16:57:41;15.70;34.40
33580;DHT22;19909;43.644;-79.438;2023-03-20T17:00:32;15.70;34.50
33580;DHT22;19909;43.644;-79.438;2023-03-20T17:03:10;15.70;34.60
33580;DHT22;19909;43.644;-79.438;2023-03-20T17:08:13;15.70;34.30
33580;DHT22;19909;43.644;-79.438;2023-03-20T17:10:44;15.70;34.40
33580;DHT22;19909;43.644;-79.438;2023-03-20T17:13:10;15.70;34.60
33580;DHT22;19909;43.644;-79.438;2023-03-20T17:15:37;15.70;34.70
33580;DHT22;19909;43.644;-79.438;2023-03-20T17:18:03;15.70;34.60
33580;DHT22;19909;43.644;-79.438;2023-03-20T17:20:31;15.70;34.50
33580;DHT22;19909;43.644;-79.438;2023-03-20T17:22:57;15.70;34.40
33580;DHT22;19909;43.644;-79.438;2023-03-20T17:25:23;15.70;34.50
33580;DHT22;19909;43.644;-79.438;2023-03-20T17:27:50;15.70;34.60
33580;DHT22;19909;43.644;-79.438;2023-03-20T17:32:44;15.70;34.70
33580;DHT22;19909;43.644;-79.438;2023-03-20T17:35:11;15.70;34.60
33580;DHT22;19909;43.644;-79.438;2023-03-20T17:37:38;15.70;34.30
33580;DHT22;19909;43.644;-79.438;2023-03-20T17:40:05;15.70;34.40
33580;DHT22;19909;43.644;-79.438;2023-03-20T17:42:32;15.70;34.70
33580;DHT22;19909;43.644;-79.438;2023-03-20T17:45:00;15.70;34.70
33580;DHT22;19909;43.644;-79.438;2023-03-20T17:47:29;15.70;34.80
33580;DHT22;19909;43.644;-79.438;2023-03-20T17:49:55;15.70;34.70
33580;DHT22;19909;43.644;-79.438;2023-03-20T17:52:24;15.60;34.50
33580;DHT22;19909;43.644;-79.438;2023-03-20T17:54:50;15.70;34.40
33580;DHT22;19909;43.644;-79.438;2023-03-20T17:57:25;15.70;34.70
33580;DHT22;19909;43.644;-79.438;2023-03-20T17:59:52;15.70;34.80
33580;DHT22;19909;43.644;-79.438;2023-03-20T18:02:18;15.60;34.70
33580;DHT22;19909;43.644;-79.438;2023-03-20T18:04:45;15.70;34.70